createdAt,value
2022-09-22T00:01:37.288Z,3.40
2022-09-22T00:04:13.560Z,3.35
2022-09-22T00:06:44.673Z,3.00
2022-09-22T00:09:16.641Z,2.80
2022-09-22T00:11:48.253Z,4.07
2022-09-22T00:14:24.072Z,3.50
2022-09-22T00:16:54.157Z,3.33
2022-09-22T00:19:35.644Z,3.10
2022-09-22T00:22:05.760Z,3.50
2022-09-22T00:24:34.920Z,3.67
2022-09-22T00:27:03.358Z,3.13
2022-09-22T00:29:31.700Z,3.03
2022-09-22T00:32:06.471Z,3.10
2022-09-22T00:34:36.086Z,3.22
2022-09-22T00:37:04.513Z,2.97
2022-09-22T00:39:32.889Z,3.08
2022-09-22T00:42:01.276Z,3.45
2022-09-22T00:44:29.858Z,3.10
2022-09-22T00:46:58.120Z,3.22
2022-09-22T00:49:58.845Z,3.70
2022-09-22T00:53:16.327Z,3.08
2022-09-22T00:55:51.941Z,2.80
2022-09-22T00:58:27.597Z,3.03
2022-09-22T01:00:56.327Z,2.95
2022-09-22T01:03:29.805Z,3.40
2022-09-22T01:06:02.328Z,2.58
2022-09-22T01:08:31.658Z,3.13
2022-09-22T01:11:01.239Z,2.90
2022-09-22T01:14:00.495Z,2.97
2022-09-22T01:16:56.660Z,3.40
2022-09-22T01:19:46.388Z,3.28
2022-09-22T01:22:47.147Z,3.40
2022-09-22T01:25:45.769Z,3.97
2022-09-22T01:28:45.436Z,3.83
2022-09-22T01:31:38.751Z,3.45
2022-09-22T01:34:37.763Z,4.35
2022-09-22T01:37:20.726Z,3.50
2022-09-22T01:39:54.067Z,3.80
2022-09-22T01:42:45.536Z,3.70
2022-09-22T01:45:24.680Z,3.70
2022-09-22T01:47:55.188Z,3.58
2022-09-22T01:50:28.914Z,3.22
2022-09-22T01:53:00.509Z,3.35
2022-09-22T01:55:36.281Z,3.67
2022-09-22T01:58:18.562Z,4.10
2022-09-22T02:00:57.060Z,3.67
2022-09-22T02:03:40.976Z,4.10
2022-09-22T02:06:17.395Z,3.60
2022-09-22T02:08:57.614Z,4.00
2022-09-22T02:11:26.041Z,3.90
2022-09-22T02:13:54.577Z,4.47
2022-09-22T02:16:24.443Z,4.55
2022-09-22T02:18:55.813Z,4.17
2022-09-22T02:21:27.402Z,3.63
2022-09-22T02:23:56.459Z,4.25
2022-09-22T02:26:27.948Z,3.60
2022-09-22T02:29:08.052Z,4.25
2022-09-22T02:31:38.893Z,4.05
2022-09-22T02:34:08.926Z,3.95
2022-09-22T02:36:42.208Z,3.65
2022-09-22T02:39:18.313Z,4.20
2022-09-22T02:42:15.120Z,4.07
2022-09-22T02:44:54.740Z,4.50
2022-09-22T02:47:44.781Z,4.00
2022-09-22T02:50:17.269Z,3.45
2022-09-22T02:52:45.865Z,4.15
2022-09-22T02:55:17.432Z,3.80
2022-09-22T02:57:46.051Z,4.20
2022-09-22T03:00:15.064Z,3.95
2022-09-22T03:02:43.508Z,4.38
2022-09-22T03:05:12.817Z,4.32
2022-09-22T03:07:41.209Z,3.90
2022-09-22T03:10:10.065Z,4.60
2022-09-22T03:13:02.412Z,3.92
2022-09-22T03:15:31.347Z,4.13
2022-09-22T03:17:59.702Z,5.07
2022-09-22T03:20:28.102Z,4.72
2022-09-22T03:22:56.483Z,4.05
2022-09-22T03:25:24.881Z,4.53
2022-09-22T03:27:53.386Z,4.22
2022-09-22T03:30:21.781Z,4.47
2022-09-22T03:32:50.074Z,4.20
2022-09-22T03:35:18.695Z,4.75
2022-09-22T03:37:47.042Z,4.45
2022-09-22T03:40:15.510Z,4.93
2022-09-22T03:42:44.387Z,6.13
2022-09-22T03:45:12.872Z,6.13
2022-09-22T03:47:41.412Z,5.30
2022-09-22T03:50:10.716Z,4.93
2022-09-22T03:52:40.160Z,5.28
2022-09-22T03:55:10.071Z,5.40
2022-09-22T03:57:39.189Z,5.13
2022-09-22T04:00:08.685Z,4.35
2022-09-22T04:02:43.510Z,4.65
2022-09-22T04:05:11.980Z,4.80
2022-09-22T04:07:40.386Z,4.60
2022-09-22T04:10:09.251Z,5.38
2022-09-22T04:12:37.532Z,4.82
2022-09-22T04:15:06.313Z,4.85
2022-09-22T04:17:34.523Z,5.35
2022-09-22T04:20:05.213Z,4.63
2022-09-22T04:25:06.101Z,5.25
2022-09-22T04:27:34.395Z,9.80
2022-09-22T04:30:03.195Z,6.18
2022-09-22T04:32:32.091Z,4.97
2022-09-22T04:35:00.356Z,4.82
2022-09-22T04:37:29.208Z,5.18
2022-09-22T04:39:59.219Z,4.40
2022-09-22T04:42:27.647Z,5.30
2022-09-22T04:45:01.927Z,5.32
2022-09-22T04:47:30.900Z,4.93
2022-09-22T04:49:59.931Z,5.45
2022-09-22T04:52:28.271Z,4.65
2022-09-22T04:54:56.749Z,6.60
2022-09-22T04:57:25.041Z,5.43
2022-09-22T04:59:53.454Z,5.50
2022-09-22T05:02:21.806Z,7.65
2022-09-22T05:04:50.247Z,9.18
2022-09-22T05:07:18.958Z,6.60
2022-09-22T05:09:47.846Z,4.95
2022-09-22T05:12:16.121Z,5.68
2022-09-22T05:14:44.598Z,5.22
2022-09-22T05:17:13.165Z,5.28
2022-09-22T05:19:41.571Z,5.40
2022-09-22T05:22:10.103Z,13.00
2022-09-22T05:24:38.801Z,11.07
2022-09-22T05:27:07.701Z,6.30
2022-09-22T05:29:35.974Z,5.32
2022-09-22T05:32:05.146Z,5.15
2022-09-22T05:34:33.538Z,5.50
2022-09-22T05:37:01.856Z,5.50
2022-09-22T05:39:32.592Z,4.78
2022-09-22T05:42:00.994Z,5.40
2022-09-22T05:44:29.661Z,4.90
2022-09-22T05:46:57.992Z,5.63
2022-09-22T05:49:26.229Z,5.60
2022-09-22T05:51:57.351Z,6.18
2022-09-22T05:54:25.717Z,6.00
2022-09-22T05:56:55.856Z,6.03
2022-09-22T05:59:24.150Z,6.43
2022-09-22T06:01:56.167Z,6.97
2022-09-22T06:04:27.785Z,6.57
2022-09-22T06:06:56.173Z,6.40
2022-09-22T06:09:25.089Z,5.88
2022-09-22T06:11:53.344Z,6.13
2022-09-22T06:14:21.756Z,7.32
2022-09-22T06:16:50.089Z,6.60
2022-09-22T06:19:18.547Z,6.50
2022-09-22T06:21:47.747Z,6.72
2022-09-22T06:24:16.590Z,6.32
2022-09-22T06:26:45.875Z,6.50
2022-09-22T06:29:14.257Z,6.80
2022-09-22T06:31:42.804Z,7.43
2022-09-22T06:34:11.688Z,6.85
2022-09-22T06:36:43.102Z,6.72
2022-09-22T06:39:12.115Z,6.68
2022-09-22T06:41:40.681Z,6.30
2022-09-22T06:44:11.044Z,6.20
2022-09-22T06:46:40.093Z,6.97
2022-09-22T06:49:08.691Z,7.32
2022-09-22T06:51:37.162Z,7.30
2022-09-22T06:54:06.489Z,7.15
2022-09-22T06:56:42.655Z,6.70
2022-09-22T06:59:14.343Z,6.20
2022-09-22T07:01:44.656Z,6.32
2022-09-22T07:04:13.507Z,5.85
2022-09-22T07:06:42.767Z,5.72
2022-09-22T07:09:12.352Z,5.68
2022-09-22T07:11:40.774Z,5.40
2022-09-22T07:14:10.288Z,6.13
2022-09-22T07:16:41.184Z,6.13
2022-09-22T07:19:10.086Z,5.00
2022-09-22T07:21:40.343Z,5.85
2022-09-22T07:24:08.891Z,5.45
2022-09-22T07:26:39.534Z,6.22
2022-09-22T07:31:42.053Z,5.75
2022-09-22T07:36:39.176Z,4.85
2022-09-22T07:39:11.118Z,5.43
2022-09-22T07:41:43.662Z,5.38
2022-09-22T07:44:34.112Z,4.97
2022-09-22T07:47:03.476Z,4.95
2022-09-22T07:49:32.009Z,4.70
2022-09-22T07:52:00.367Z,4.43
2022-09-22T07:54:28.890Z,4.63
2022-09-22T07:56:58.745Z,4.45
2022-09-22T07:59:27.827Z,4.50
2022-09-22T08:01:56.550Z,4.70
2022-09-22T08:04:26.786Z,4.47
2022-09-22T08:06:56.128Z,4.18
2022-09-22T08:09:26.111Z,4.53
2022-09-22T08:11:56.079Z,4.15
2022-09-22T08:14:24.715Z,4.10
2022-09-22T08:16:54.086Z,4.20
2022-09-22T08:19:23.930Z,3.75
2022-09-22T08:21:54.296Z,4.30
2022-09-22T08:24:23.723Z,4.68
2022-09-22T08:26:56.173Z,4.05
2022-09-22T08:29:24.914Z,4.35
2022-09-22T08:31:54.398Z,4.20
2022-09-22T08:34:23.201Z,4.90
2022-09-22T08:36:52.595Z,4.18
2022-09-22T08:39:20.967Z,3.80
2022-09-22T08:42:06.060Z,4.15
2022-09-22T08:44:58.049Z,3.72
2022-09-22T08:48:09.052Z,3.80
2022-09-22T08:51:10.104Z,3.47
2022-09-22T08:53:44.950Z,3.70
2022-09-22T08:56:32.094Z,3.88
2022-09-22T08:59:22.991Z,4.38
2022-09-22T09:02:13.180Z,3.40
2022-09-22T09:04:50.489Z,4.00
2022-09-22T09:07:58.974Z,3.90
2022-09-22T09:10:30.394Z,3.85
2022-09-22T09:13:29.130Z,3.20
2022-09-22T09:16:20.846Z,3.90
2022-09-22T09:21:52.872Z,3.60
2022-09-22T09:27:38.516Z,3.42
2022-09-22T09:30:11.851Z,3.50
2022-09-22T09:32:53.712Z,3.17
2022-09-22T09:35:44.269Z,3.13
2022-09-22T09:38:17.346Z,3.42
2022-09-22T09:40:54.403Z,2.92
2022-09-22T09:43:24.660Z,3.17
2022-09-22T09:46:03.191Z,3.35
2022-09-22T09:48:37.774Z,3.30
2022-09-22T09:51:06.374Z,3.17
2022-09-22T09:53:42.868Z,3.55
2022-09-22T09:56:29.853Z,2.97
2022-09-22T09:59:21.893Z,3.83
2022-09-22T10:01:54.078Z,3.45
2022-09-22T10:04:23.289Z,2.85
2022-09-22T10:06:52.015Z,3.00
2022-09-22T10:09:29.721Z,3.20
2022-09-22T10:12:02.600Z,2.80
2022-09-22T10:14:35.346Z,2.85
2022-09-22T10:17:04.082Z,3.17
2022-09-22T10:19:34.704Z,3.40
2022-09-22T10:25:32.118Z,2.67
2022-09-22T10:28:00.307Z,2.58
2022-09-22T10:30:37.878Z,2.75
2022-09-22T10:33:23.360Z,2.60
2022-09-22T10:36:12.286Z,2.15
2022-09-22T10:38:44.962Z,2.55
2022-09-22T10:41:17.897Z,2.55
2022-09-22T10:44:15.449Z,2.10
2022-09-22T10:47:11.072Z,2.40
2022-09-22T10:50:07.218Z,2.00
2022-09-22T10:53:04.916Z,2.10
2022-09-22T10:55:46.013Z,2.13
2022-09-22T10:58:27.416Z,2.20
2022-09-22T11:01:13.241Z,1.73
2022-09-22T11:04:04.633Z,2.42
2022-09-22T11:07:06.869Z,2.75
2022-09-22T11:10:09.977Z,3.30
2022-09-22T11:12:52.589Z,2.83
2022-09-22T11:15:24.157Z,3.92
2022-09-22T11:18:20.600Z,2.63
2022-09-22T11:20:55.951Z,2.10
2022-09-22T11:23:48.226Z,2.38
2022-09-22T11:26:46.650Z,3.15
2022-09-22T11:29:45.363Z,2.60
2022-09-22T11:32:19.961Z,2.47
2022-09-22T11:35:00.704Z,1.88
2022-09-22T11:37:49.787Z,2.42
2022-09-22T11:40:45.824Z,2.00
2022-09-22T11:43:38.048Z,2.20
2022-09-22T11:46:18.792Z,1.92
2022-09-22T11:48:50.261Z,2.05
2022-09-22T11:51:27.648Z,2.33
2022-09-22T11:54:10.321Z,2.33
2022-09-22T11:56:40.789Z,2.70
2022-09-22T11:59:33.904Z,2.33
2022-09-22T12:02:12.946Z,2.20
2022-09-22T12:04:56.969Z,2.20
2022-09-22T12:07:32.823Z,2.13
2022-09-22T12:10:12.681Z,2.40
2022-09-22T12:12:44.703Z,2.80
2022-09-22T12:15:29.088Z,2.47
2022-09-22T12:18:28.553Z,2.20
2022-09-22T12:21:02.504Z,2.33
2022-09-22T12:23:36.791Z,2.08
2022-09-22T12:26:25.307Z,2.10
2022-09-22T12:28:54.767Z,1.80
2022-09-22T12:31:42.253Z,2.45
2022-09-22T12:34:24.423Z,2.75
2022-09-22T12:36:56.065Z,2.05
2022-09-22T12:39:29.281Z,2.42
2022-09-22T12:41:59.897Z,2.45
2022-09-22T12:44:31.979Z,2.25
2022-09-22T12:47:04.924Z,2.42
2022-09-22T12:49:33.657Z,2.67
2022-09-22T12:52:02.423Z,2.63
2022-09-22T12:54:37.838Z,2.35
2022-09-22T12:57:09.310Z,2.40
2022-09-22T12:59:37.675Z,2.63
2022-09-22T13:02:40.389Z,2.35
2022-09-22T13:05:12.139Z,2.40
2022-09-22T13:07:44.485Z,2.58
2022-09-22T13:10:22.261Z,2.67
2022-09-22T13:13:12.257Z,2.22
2022-09-22T13:15:47.173Z,2.50
2022-09-22T13:18:34.049Z,2.28
2022-09-22T13:21:14.586Z,2.70
2022-09-22T13:23:52.741Z,2.15
2022-09-22T13:26:23.293Z,2.95
2022-09-22T13:29:04.831Z,2.50
2022-09-22T13:31:45.390Z,2.78
2022-09-22T13:34:20.764Z,2.55
2022-09-22T13:36:51.534Z,2.40
2022-09-22T13:39:22.515Z,2.65
2022-09-22T13:42:04.194Z,2.38
2022-09-22T13:44:36.727Z,1.92
2022-09-22T13:47:12.009Z,2.30
2022-09-22T13:50:14.641Z,2.03
2022-09-22T13:52:44.579Z,3.25
2022-09-22T13:55:20.804Z,2.05
2022-09-22T13:57:50.648Z,1.88
2022-09-22T14:00:44.941Z,2.22
2022-09-22T14:03:22.757Z,2.13
2022-09-22T14:05:53.933Z,2.35
2022-09-22T14:08:30.637Z,2.20
2022-09-22T14:11:00.596Z,2.30
2022-09-22T14:13:55.084Z,2.47
2022-09-22T14:16:26.521Z,1.90
2022-09-22T14:19:19.165Z,1.80
2022-09-22T14:22:02.385Z,2.47
2022-09-22T14:24:35.967Z,2.60
2022-09-22T14:27:07.727Z,2.30
2022-09-22T14:29:39.996Z,2.40
2022-09-22T14:32:13.193Z,2.78
2022-09-22T14:34:47.229Z,2.80
2022-09-22T14:37:25.096Z,2.80
2022-09-22T14:39:55.640Z,2.00
2022-09-22T14:42:29.352Z,2.38
2022-09-22T14:45:09.641Z,2.60
2022-09-22T14:47:42.391Z,2.90
2022-09-22T14:50:37.641Z,4.47
2022-09-22T14:53:41.139Z,2.55
2022-09-22T14:56:20.216Z,2.90
2022-09-22T14:58:54.333Z,3.20
2022-09-22T15:01:42.724Z,2.55
2022-09-22T15:04:16.017Z,2.40
2022-09-22T15:06:51.961Z,2.53
2022-09-22T15:09:34.126Z,2.80
2022-09-22T15:12:03.861Z,2.67
2022-09-22T15:14:42.266Z,2.90
2022-09-22T15:17:57.248Z,2.47
2022-09-22T15:20:48.663Z,2.25
2022-09-22T15:23:42.131Z,2.30
2022-09-22T15:26:25.253Z,2.28
2022-09-22T15:28:56.090Z,2.15
2022-09-22T15:31:28.371Z,2.42
2022-09-22T15:34:01.552Z,2.35
2022-09-22T15:36:32.898Z,2.33
2022-09-22T15:39:20.764Z,2.63
2022-09-22T15:41:53.561Z,2.15
2022-09-22T15:44:22.080Z,2.47
2022-09-22T15:46:54.372Z,2.40
2022-09-22T15:49:26.561Z,3.17
2022-09-22T15:51:58.318Z,2.58
2022-09-22T15:54:26.982Z,2.30
2022-09-22T15:56:56.598Z,2.70
2022-09-22T15:59:32.298Z,2.20
2022-09-22T16:02:01.300Z,2.10
2022-09-22T16:04:31.626Z,1.98
2022-09-22T16:07:04.460Z,1.98
2022-09-22T16:09:32.805Z,2.17
2022-09-22T16:12:01.644Z,2.40
2022-09-22T16:14:31.477Z,2.10
2022-09-22T16:16:59.875Z,1.77
2022-09-22T16:19:30.360Z,2.10
2022-09-22T16:21:58.602Z,2.08
2022-09-22T16:24:29.074Z,2.22
2022-09-22T16:26:58.002Z,2.10
2022-09-22T16:29:26.462Z,2.15
2022-09-22T16:31:55.065Z,2.08
2022-09-22T16:34:23.777Z,2.38
2022-09-22T16:36:52.556Z,1.90
2022-09-22T16:39:25.545Z,2.20
2022-09-22T16:41:54.483Z,2.45
2022-09-22T16:44:22.857Z,2.42
2022-09-22T16:46:51.166Z,2.30
2022-09-22T16:49:21.167Z,2.13
2022-09-22T16:51:50.852Z,2.20
2022-09-22T16:54:19.577Z,2.20
2022-09-22T16:56:49.728Z,2.20
2022-09-22T16:59:20.307Z,1.92
2022-09-22T17:01:49.629Z,1.80
2022-09-22T17:04:21.250Z,2.15
2022-09-22T17:06:49.652Z,2.28
2022-09-22T17:09:20.262Z,1.85
2022-09-22T17:14:23.264Z,2.10
2022-09-22T17:16:54.011Z,2.30
2022-09-22T17:19:27.680Z,2.47
2022-09-22T17:21:56.943Z,2.10
2022-09-22T17:24:29.137Z,2.03
2022-09-22T17:26:59.218Z,2.47
2022-09-22T17:29:32.836Z,2.40
2022-09-22T17:32:04.319Z,4.05
2022-09-22T17:34:34.001Z,6.03
2022-09-22T17:37:03.178Z,6.35
2022-09-22T17:39:32.126Z,5.30
2022-09-22T17:42:00.467Z,4.97
2022-09-22T17:44:31.033Z,4.60
2022-09-22T17:47:18.044Z,4.45
2022-09-22T17:50:04.870Z,4.22
2022-09-22T17:52:33.524Z,5.05
2022-09-22T17:55:08.809Z,4.50
2022-09-22T17:57:42.689Z,4.85
2022-09-22T18:00:14.000Z,4.28
2022-09-22T18:02:44.900Z,4.40
2022-09-22T18:05:16.219Z,4.97
2022-09-22T18:07:45.165Z,4.28
2022-09-22T18:10:16.680Z,4.32
2022-09-22T18:12:45.619Z,4.15
2022-09-22T18:15:15.094Z,3.97
2022-09-22T18:17:48.774Z,4.20
2022-09-22T18:20:21.930Z,4.20
2022-09-22T18:22:50.599Z,4.57
2022-09-22T18:25:21.839Z,4.20
2022-09-22T18:27:50.549Z,4.40
2022-09-22T18:30:22.703Z,4.05
2022-09-22T18:32:54.829Z,3.97
2022-09-22T18:35:24.859Z,3.85
2022-09-22T18:37:53.399Z,4.40
2022-09-22T18:40:24.837Z,4.20
2022-09-22T18:42:55.854Z,4.20
2022-09-22T18:45:25.292Z,4.00
2022-09-22T18:48:02.887Z,4.68
2022-09-22T18:50:34.769Z,4.18
2022-09-22T18:53:03.428Z,4.32
2022-09-22T18:55:32.524Z,3.65
2022-09-22T18:58:01.186Z,4.38
2022-09-22T19:00:29.729Z,4.88
2022-09-22T19:03:03.569Z,5.00
2022-09-22T19:05:32.273Z,4.80
2022-09-22T19:08:01.865Z,5.00
2022-09-22T19:10:30.393Z,4.82
2022-09-22T19:12:59.775Z,4.90
2022-09-22T19:15:30.981Z,4.78
2022-09-22T19:17:59.404Z,4.72
2022-09-22T19:20:29.109Z,4.97
2022-09-22T19:23:00.651Z,4.68
2022-09-22T19:25:29.882Z,5.28
2022-09-22T19:28:01.832Z,5.10
2022-09-22T19:30:31.610Z,4.72
2022-09-22T19:33:00.535Z,5.20
2022-09-22T19:35:29.220Z,4.20
2022-09-22T19:37:58.280Z,4.40
2022-09-22T19:40:26.856Z,4.50
2022-09-22T19:42:56.907Z,4.80
2022-09-22T19:45:26.263Z,5.07
2022-09-22T19:47:58.453Z,4.15
2022-09-22T19:50:27.003Z,4.65
2022-09-22T19:52:59.150Z,4.40
2022-09-22T19:55:27.937Z,5.22
2022-09-22T19:57:59.507Z,5.07
2022-09-22T20:00:28.131Z,6.03
2022-09-22T20:03:00.799Z,5.68
2022-09-22T20:05:36.736Z,5.78
2022-09-22T20:08:17.469Z,5.45
2022-09-22T20:10:49.007Z,5.65
2022-09-22T20:13:38.079Z,5.43
2022-09-22T20:16:06.750Z,5.68
2022-09-22T20:18:41.214Z,4.95
2022-09-22T20:21:16.655Z,5.78
2022-09-22T20:23:45.404Z,5.18
2022-09-22T20:26:15.283Z,5.85
2022-09-22T20:28:45.408Z,5.93
2022-09-22T20:31:13.887Z,5.85
2022-09-22T20:33:43.197Z,5.32
2022-09-22T20:36:14.069Z,6.07
2022-09-22T20:38:43.015Z,5.13
2022-09-22T20:41:18.960Z,5.20
2022-09-22T20:43:50.621Z,5.32
2022-09-22T20:46:19.698Z,6.05
2022-09-22T20:48:48.824Z,5.43
2022-09-22T20:51:23.764Z,5.63
2022-09-22T20:53:52.295Z,5.97
2022-09-22T20:56:20.723Z,6.22
2022-09-22T20:58:49.113Z,5.93
2022-09-22T21:01:18.711Z,5.80
2022-09-22T21:03:47.847Z,5.85
2022-09-22T21:06:18.205Z,5.63
2022-09-22T21:09:06.411Z,6.50
2022-09-22T21:11:36.195Z,6.15
2022-09-22T21:14:05.992Z,6.13
2022-09-22T21:16:36.812Z,5.70
2022-09-22T21:19:05.979Z,6.10
2022-09-22T21:21:38.906Z,5.97
2022-09-22T21:24:08.211Z,6.57
2022-09-22T21:26:37.026Z,6.80
2022-09-22T21:29:05.511Z,6.68
2022-09-22T21:31:34.841Z,5.82
2022-09-22T21:34:04.708Z,6.90
2022-09-22T21:36:34.103Z,6.53
2022-09-22T21:39:05.580Z,6.18
2022-09-22T21:41:37.017Z,7.35
2022-09-22T21:44:06.171Z,7.22
2022-09-22T21:46:37.301Z,7.50
2022-09-22T21:49:06.578Z,7.55
2022-09-22T21:51:42.302Z,7.45
2022-09-22T21:54:15.059Z,7.40
2022-09-22T21:56:47.229Z,7.15
2022-09-22T21:59:16.127Z,7.75
2022-09-22T22:01:45.429Z,8.13
2022-09-22T22:04:15.217Z,7.65
2022-09-22T22:06:47.333Z,7.77
2022-09-22T22:09:21.048Z,7.30
2022-09-22T22:11:57.524Z,7.40
2022-09-22T22:14:32.623Z,7.43
2022-09-22T22:17:03.801Z,7.80
2022-09-22T22:19:32.443Z,7.18
2022-09-22T22:22:01.679Z,7.35
2022-09-22T22:24:42.227Z,7.68
2022-09-22T22:27:11.114Z,7.45
2022-09-22T22:29:39.504Z,8.52
2022-09-22T22:32:10.230Z,7.65
2022-09-22T22:34:38.750Z,7.05
2022-09-22T22:37:09.556Z,7.32
2022-09-22T22:39:38.062Z,7.38
2022-09-22T22:42:09.262Z,7.40
2022-09-22T22:44:37.924Z,7.50
2022-09-22T22:47:08.544Z,7.53
2022-09-22T22:49:36.954Z,7.70
2022-09-22T22:52:05.258Z,7.28
2022-09-22T22:54:33.965Z,8.30
2022-09-22T22:57:02.360Z,7.68
2022-09-22T22:59:30.875Z,7.80
2022-09-22T23:01:59.522Z,7.78
2022-09-22T23:04:27.843Z,7.90
2022-09-22T23:06:57.410Z,8.30
2022-09-22T23:09:25.873Z,8.77
2022-09-22T23:11:54.754Z,7.50
2022-09-22T23:14:23.140Z,8.13
2022-09-22T23:16:51.494Z,8.93
2022-09-22T23:19:19.890Z,8.43
2022-09-22T23:21:48.866Z,8.93
2022-09-22T23:24:19.370Z,8.65
2022-09-22T23:26:48.106Z,8.60
2022-09-22T23:29:16.390Z,8.93
2022-09-22T23:31:46.052Z,8.80
2022-09-22T23:34:14.500Z,8.68
2022-09-22T23:36:43.221Z,9.68
2022-09-22T23:39:12.286Z,9.48
2022-09-22T23:41:41.611Z,8.43
2022-09-22T23:44:12.379Z,9.15
2022-09-22T23:49:11.244Z,9.50
2022-09-22T23:51:39.573Z,10.27
2022-09-22T23:54:08.928Z,9.25
2022-09-22T23:56:37.865Z,8.75
2022-09-22T23:59:06.510Z,9.85
